sensor_id;sensor_type;location;lat;lon;timestamp;pressure;altitude;pressure_sealevel;temperature;humidity
6136;BME280;24008;42.664;23.372;2022-08-18T00:02:09;94631.94;;;20.49;72.51
6136;BME280;24008;42.664;23.372;2022-08-18T00:04:37;94519.66;;;19.70;74.33
6136;BME280;24008;42.664;23.372;2022-08-18T00:07:05;94602.00;;;20.21;73.93
6136;BME280;24008;42.664;23.372;2022-08-18T00:09:34;94628.16;;;20.39;73.46
6136;BME280;24008;42.664;23.372;2022-08-18T00:12:03;94636.34;;;20.36;74.51
6136;BME280;24008;42.664;23.372;2022-08-18T00:14:31;94633.53;;;20.31;74.95
6136;BME280;24008;42.664;23.372;2022-08-18T00:16:58;94539.03;;;19.61;76.58
6136;BME280;24008;42.664;23.372;2022-08-18T00:19:26;94630.38;;;20.09;77.38
6136;BME280;24008;42.664;23.372;2022-08-18T00:21:53;94631.00;;;20.04;77.38
6136;BME280;24008;42.664;23.372;2022-08-18T00:24:20;94632.00;;;20.03;77.26
6136;BME280;24008;42.664;23.372;2022-08-18T00:26:47;94639.56;;;19.98;78.95
6136;BME280;24008;42.664;23.372;2022-08-18T00:29:14;94637.19;;;19.90;79.04
6136;BME280;24008;42.664;23.372;2022-08-18T00:31:41;94609.06;;;19.67;78.88
6136;BME280;24008;42.664;23.372;2022-08-18T00:34:08;94633.56;;;19.85;77.94
6136;BME280;24008;42.664;23.372;2022-08-18T00:36:36;94588.50;;;19.59;79.07
6136;BME280;24008;42.664;23.372;2022-08-18T00:39:03;94631.59;;;19.80;79.05
6136;BME280;24008;42.664;23.372;2022-08-18T00:41:30;94629.59;;;19.75;79.99
6136;BME280;24008;42.664;23.372;2022-08-18T00:43:57;94635.19;;;19.66;79.65
6136;BME280;24008;42.664;23.372;2022-08-18T00:46:26;94627.38;;;19.59;81.41
6136;BME280;24008;42.664;23.372;2022-08-18T00:48:54;94641.53;;;19.50;81.76
6136;BME280;24008;42.664;23.372;2022-08-18T00:51:24;94641.28;;;19.45;81.52
6136;BME280;24008;42.664;23.372;2022-08-18T00:53:58;94641.50;;;19.43;82.40
6136;BME280;24008;42.664;23.372;2022-08-18T00:56:29;94566.63;;;18.88;82.80
6136;BME280;24008;42.664;23.372;2022-08-18T00:59:02;94627.09;;;19.21;83.02
6136;BME280;24008;42.664;23.372;2022-08-18T01:01:32;94674.56;;;19.28;84.26
6136;BME280;24008;42.664;23.372;2022-08-18T01:04:08;94576.34;;;18.73;84.24
6136;BME280;24008;42.664;23.372;2022-08-18T01:06:41;94572.72;;;18.60;84.51
6136;BME280;24008;42.664;23.372;2022-08-18T01:09:11;94655.16;;;19.11;84.15
6136;BME280;24008;42.664;23.372;2022-08-18T01:11:38;94647.81;;;19.15;84.25
6136;BME280;24008;42.664;23.372;2022-08-18T01:14:07;94642.78;;;18.93;84.80
6136;BME280;24008;42.664;23.372;2022-08-18T01:16:35;94647.59;;;19.03;85.28
6136;BME280;24008;42.664;23.372;2022-08-18T01:19:20;94485.22;;;17.88;85.26
6136;BME280;24008;42.664;23.372;2022-08-18T01:22:11;94656.13;;;18.97;85.75
6136;BME280;24008;42.664;23.372;2022-08-18T01:24:41;94654.13;;;18.99;85.67
6136;BME280;24008;42.664;23.372;2022-08-18T01:27:26;94649.94;;;18.98;85.69
6136;BME280;24008;42.664;23.372;2022-08-18T01:30:02;94642.78;;;19.00;85.38
6136;BME280;24008;42.664;23.372;2022-08-18T01:32:30;94569.09;;;18.55;85.39
6136;BME280;24008;42.664;23.372;2022-08-18T01:34:56;94641.19;;;18.99;85.33
6136;BME280;24008;42.664;23.372;2022-08-18T01:37:23;94649.75;;;18.99;85.06
6136;BME280;24008;42.664;23.372;2022-08-18T01:39:52;94528.56;;;18.27;84.79
6136;BME280;24008;42.664;23.372;2022-08-18T01:42:19;94648.75;;;19.00;85.21
6136;BME280;24008;42.664;23.372;2022-08-18T01:44:47;94621.81;;;18.82;85.53
6136;BME280;24008;42.664;23.372;2022-08-18T01:47:16;94618.63;;;18.80;85.15
6136;BME280;24008;42.664;23.372;2022-08-18T01:49:43;94626.19;;;18.88;84.36
6136;BME280;24008;42.664;23.372;2022-08-18T01:52:14;94628.97;;;18.86;84.40
6136;BME280;24008;42.664;23.372;2022-08-18T01:54:44;94634.75;;;18.82;84.02
6136;BME280;24008;42.664;23.372;2022-08-18T01:57:13;94564.84;;;18.41;83.12
6136;BME280;24008;42.664;23.372;2022-08-18T01:59:40;94489.63;;;17.94;83.04
6136;BME280;24008;42.664;23.372;2022-08-18T02:02:08;94628.41;;;18.91;83.76
6136;BME280;24008;42.664;23.372;2022-08-18T02:04:36;94629.03;;;18.93;83.85
6136;BME280;24008;42.664;23.372;2022-08-18T02:07:06;94599.47;;;18.74;84.44
6136;BME280;24008;42.664;23.372;2022-08-18T02:09:34;94630.00;;;18.92;84.19
6136;BME280;24008;42.664;23.372;2022-08-18T02:12:02;94608.25;;;18.80;83.71
6136;BME280;24008;42.664;23.372;2022-08-18T02:14:31;94637.78;;;18.92;84.36
6136;BME280;24008;42.664;23.372;2022-08-18T02:17:00;94623.75;;;18.73;84.45
6136;BME280;24008;42.664;23.372;2022-08-18T02:19:32;94645.31;;;18.87;84.95
6136;BME280;24008;42.664;23.372;2022-08-18T02:21:59;94651.47;;;18.79;85.10
6136;BME280;24008;42.664;23.372;2022-08-18T02:24:26;94652.03;;;18.75;85.24
6136;BME280;24008;42.664;23.372;2022-08-18T02:26:53;94645.25;;;18.74;85.39
6136;BME280;24008;42.664;23.372;2022-08-18T02:29:20;94647.66;;;18.75;84.93
6136;BME280;24008;42.664;23.372;2022-08-18T02:31:49;94642.28;;;18.77;85.47
6136;BME280;24008;42.664;23.372;2022-08-18T02:34:16;94648.09;;;18.79;85.39
6136;BME280;24008;42.664;23.372;2022-08-18T02:36:43;94585.00;;;18.52;85.31
6136;BME280;24008;42.664;23.372;2022-08-18T02:39:10;94548.84;;;18.24;84.92
6136;BME280;24008;42.664;23.372;2022-08-18T02:41:37;94632.75;;;18.84;84.54
6136;BME280;24008;42.664;23.372;2022-08-18T02:44:05;94631.75;;;18.85;84.16
6136;BME280;24008;42.664;23.372;2022-08-18T02:46:33;94603.03;;;18.66;84.90
6136;BME280;24008;42.664;23.372;2022-08-18T02:49:02;94622.94;;;18.66;84.08
6136;BME280;24008;42.664;23.372;2022-08-18T02:51:29;94643.91;;;18.78;83.90
6136;BME280;24008;42.664;23.372;2022-08-18T02:53:57;94639.72;;;18.77;84.25
6136;BME280;24008;42.664;23.372;2022-08-18T02:56:26;94646.88;;;18.75;84.51
6136;BME280;24008;42.664;23.372;2022-08-18T02:58:54;94626.66;;;18.57;84.10
6136;BME280;24008;42.664;23.372;2022-08-18T03:01:23;94646.47;;;18.71;85.29
6136;BME280;24008;42.664;23.372;2022-08-18T03:03:52;94628.56;;;18.48;86.06
6136;BME280;24008;42.664;23.372;2022-08-18T03:06:22;94650.75;;;18.57;86.68
6136;BME280;24008;42.664;23.372;2022-08-18T03:08:49;94646.31;;;18.51;85.53
6136;BME280;24008;42.664;23.372;2022-08-18T03:11:21;94565.97;;;17.90;85.53
6136;BME280;24008;42.664;23.372;2022-08-18T03:13:48;94650.31;;;18.47;86.61
6136;BME280;24008;42.664;23.372;2022-08-18T03:16:16;94616.50;;;18.21;87.81
6136;BME280;24008;42.664;23.372;2022-08-18T03:18:44;94648.22;;;18.36;88.25
6136;BME280;24008;42.664;23.372;2022-08-18T03:21:16;94648.63;;;18.33;88.58
6136;BME280;24008;42.664;23.372;2022-08-18T03:23:44;94651.41;;;18.31;88.66
6136;BME280;24008;42.664;23.372;2022-08-18T03:26:13;94550.28;;;17.64;90.22
6136;BME280;24008;42.664;23.372;2022-08-18T03:28:42;94654.50;;;18.20;90.44
6136;BME280;24008;42.664;23.372;2022-08-18T03:31:11;94649.91;;;18.16;90.53
6136;BME280;24008;42.664;23.372;2022-08-18T03:33:39;94619.25;;;17.85;90.44
6136;BME280;24008;42.664;23.372;2022-08-18T03:36:08;94635.78;;;17.90;91.86
6136;BME280;24008;42.664;23.372;2022-08-18T03:38:36;94658.94;;;17.98;92.16
6136;BME280;24008;42.664;23.372;2022-08-18T03:41:05;94641.53;;;17.86;92.83
6136;BME280;24008;42.664;23.372;2022-08-18T03:43:33;94660.09;;;17.96;93.10
6136;BME280;24008;42.664;23.372;2022-08-18T03:46:00;94611.31;;;17.65;93.44
6136;BME280;24008;42.664;23.372;2022-08-18T03:48:27;94658.31;;;17.96;93.29
6136;BME280;24008;42.664;23.372;2022-08-18T03:50:54;94666.31;;;18.02;93.32
6136;BME280;24008;42.664;23.372;2022-08-18T03:53:27;94657.19;;;18.06;93.12
6136;BME280;24008;42.664;23.372;2022-08-18T03:55:54;94659.59;;;18.07;93.47
6136;BME280;24008;42.664;23.372;2022-08-18T03:58:22;94662.00;;;18.09;93.28
6136;BME280;24008;42.664;23.372;2022-08-18T04:00:49;94658.03;;;18.13;93.66
6136;BME280;24008;42.664;23.372;2022-08-18T04:03:16;94627.69;;;18.00;93.81
6136;BME280;24008;42.664;23.372;2022-08-18T04:05:43;94557.94;;;17.51;92.35
6136;BME280;24008;42.664;23.372;2022-08-18T04:08:10;94632.31;;;18.05;91.84
6136;BME280;24008;42.664;23.372;2022-08-18T04:10:38;94667.25;;;18.22;92.38
6136;BME280;24008;42.664;23.372;2022-08-18T04:13:05;94650.25;;;18.13;93.03
6136;BME280;24008;42.664;23.372;2022-08-18T04:15:33;94643.41;;;17.98;93.58
6136;BME280;24008;42.664;23.372;2022-08-18T04:18:00;94649.63;;;18.04;93.34
6136;BME280;24008;42.664;23.372;2022-08-18T04:20:28;94670.88;;;18.27;92.63
6136;BME280;24008;42.664;23.372;2022-08-18T04:22:56;94677.47;;;18.36;92.52
6136;BME280;24008;42.664;23.372;2022-08-18T04:25:23;94676.56;;;18.44;92.16
6136;BME280;24008;42.664;23.372;2022-08-18T04:28:11;94658.34;;;18.31;91.98
6136;BME280;24008;42.664;23.372;2022-08-18T04:30:39;94683.69;;;18.42;92.29
6136;BME280;24008;42.664;23.372;2022-08-18T04:33:06;94614.38;;;17.96;92.46
6136;BME280;24008;42.664;23.372;2022-08-18T04:35:33;94696.88;;;18.47;92.08
6136;BME280;24008;42.664;23.372;2022-08-18T04:38:00;94695.50;;;18.51;92.23
6136;BME280;24008;42.664;23.372;2022-08-18T04:40:27;94650.97;;;18.28;91.35
6136;BME280;24008;42.664;23.372;2022-08-18T04:42:58;94658.66;;;18.49;90.95
6136;BME280;24008;42.664;23.372;2022-08-18T04:45:26;94688.72;;;18.78;89.78
6136;BME280;24008;42.664;23.372;2022-08-18T04:47:54;94690.56;;;18.91;88.78
6136;BME280;24008;42.664;23.372;2022-08-18T04:50:22;94684.84;;;19.02;87.67
6136;BME280;24008;42.664;23.372;2022-08-18T04:52:49;94689.88;;;19.23;87.16
6136;BME280;24008;42.664;23.372;2022-08-18T04:55:34;94672.66;;;19.57;85.81
6136;BME280;24008;42.664;23.372;2022-08-18T04:58:01;94696.97;;;20.88;80.34
6136;BME280;24008;42.664;23.372;2022-08-18T05:00:27;94693.88;;;22.18;75.95
6136;BME280;24008;42.664;23.372;2022-08-18T05:02:56;94693.03;;;23.40;69.13
6136;BME280;24008;42.664;23.372;2022-08-18T05:05:23;94698.06;;;24.36;65.56
6136;BME280;24008;42.664;23.372;2022-08-18T05:07:51;94703.47;;;25.17;61.86
6136;BME280;24008;42.664;23.372;2022-08-18T05:10:19;94687.69;;;25.80;58.43
6136;BME280;24008;42.664;23.372;2022-08-18T05:12:46;94701.41;;;26.20;56.04
6136;BME280;24008;42.664;23.372;2022-08-18T05:15:13;94700.72;;;26.59;54.73
6136;BME280;24008;42.664;23.372;2022-08-18T05:17:42;94702.25;;;26.93;53.45
6136;BME280;24008;42.664;23.372;2022-08-18T05:20:11;94587.94;;;26.32;52.11
6136;BME280;24008;42.664;23.372;2022-08-18T05:22:40;94683.44;;;26.96;51.64
6136;BME280;24008;42.664;23.372;2022-08-18T05:25:10;94676.78;;;27.10;51.55
6136;BME280;24008;42.664;23.372;2022-08-18T05:27:40;94702.53;;;27.13;51.58
6136;BME280;24008;42.664;23.372;2022-08-18T05:30:09;94713.38;;;27.44;51.54
6136;BME280;24008;42.664;23.372;2022-08-18T05:32:41;94727.03;;;27.63;50.97
6136;BME280;24008;42.664;23.372;2022-08-18T05:35:14;94673.44;;;27.90;49.37
6136;BME280;24008;42.664;23.372;2022-08-18T05:37:54;94716.53;;;28.48;48.03
6136;BME280;24008;42.664;23.372;2022-08-18T05:40:25;94699.34;;;28.78;48.78
6136;BME280;24008;42.664;23.372;2022-08-18T05:42:55;94721.44;;;28.77;47.97
6136;BME280;24008;42.664;23.372;2022-08-18T05:45:24;94716.97;;;28.77;48.09
6136;BME280;24008;42.664;23.372;2022-08-18T05:47:56;94703.78;;;28.72;45.82
6136;BME280;24008;42.664;23.372;2022-08-18T05:50:26;94682.66;;;29.04;44.38
6136;BME280;24008;42.664;23.372;2022-08-18T05:52:57;94699.97;;;29.47;43.99
6136;BME280;24008;42.664;23.372;2022-08-18T05:55:30;94702.47;;;29.94;43.52
6136;BME280;24008;42.664;23.372;2022-08-18T05:58:19;94699.84;;;30.45;41.50
6136;BME280;24008;42.664;23.372;2022-08-18T06:00:51;94708.25;;;29.96;42.15
6136;BME280;24008;42.664;23.372;2022-08-18T06:03:21;94695.09;;;30.01;41.48
6136;BME280;24008;42.664;23.372;2022-08-18T06:05:54;94701.69;;;30.50;40.17
6136;BME280;24008;42.664;23.372;2022-08-18T06:08:26;94717.78;;;30.73;40.04
6136;BME280;24008;42.664;23.372;2022-08-18T06:10:55;94543.00;;;29.92;40.54
6136;BME280;24008;42.664;23.372;2022-08-18T06:13:37;94683.34;;;31.19;39.81
6136;BME280;24008;42.664;23.372;2022-08-18T06:16:10;94674.53;;;30.59;41.61
6136;BME280;24008;42.664;23.372;2022-08-18T06:18:45;94719.00;;;31.27;39.62
6136;BME280;24008;42.664;23.372;2022-08-18T06:21:30;94695.47;;;31.30;39.29
6136;BME280;24008;42.664;23.372;2022-08-18T06:24:08;94722.75;;;31.10;39.60
6136;BME280;24008;42.664;23.372;2022-08-18T06:26:42;94717.72;;;31.14;39.55
6136;BME280;24008;42.664;23.372;2022-08-18T06:29:24;94721.16;;;31.14;39.70
6136;BME280;24008;42.664;23.372;2022-08-18T06:31:59;94718.78;;;30.93;41.03
6136;BME280;24008;42.664;23.372;2022-08-18T06:34:40;94717.19;;;31.12;41.69
6136;BME280;24008;42.664;23.372;2022-08-18T06:37:17;94724.78;;;31.29;40.44
6136;BME280;24008;42.664;23.372;2022-08-18T06:39:46;94722.34;;;31.42;40.77
6136;BME280;24008;42.664;23.372;2022-08-18T06:42:16;94723.41;;;31.41;41.37
6136;BME280;24008;42.664;23.372;2022-08-18T06:44:48;94700.59;;;30.91;40.31
6136;BME280;24008;42.664;23.372;2022-08-18T06:47:24;94712.47;;;30.89;42.15
6136;BME280;24008;42.664;23.372;2022-08-18T06:49:58;94695.59;;;31.54;40.73
6136;BME280;24008;42.664;23.372;2022-08-18T06:52:31;94696.00;;;32.54;38.17
6136;BME280;24008;42.664;23.372;2022-08-18T06:55:02;94704.66;;;33.18;37.89
6136;BME280;24008;42.664;23.372;2022-08-18T06:57:33;94701.06;;;33.09;36.64
6136;BME280;24008;42.664;23.372;2022-08-18T07:00:05;94660.31;;;33.29;36.22
6136;BME280;24008;42.664;23.372;2022-08-18T07:02:41;94629.66;;;32.99;37.72
6136;BME280;24008;42.664;23.372;2022-08-18T07:05:19;94701.53;;;33.58;36.57
6136;BME280;24008;42.664;23.372;2022-08-18T07:08:05;94667.84;;;34.15;35.17
6136;BME280;24008;42.664;23.372;2022-08-18T07:10:37;94686.06;;;34.41;34.51
6136;BME280;24008;42.664;23.372;2022-08-18T07:13:06;94593.94;;;34.09;34.98
6136;BME280;24008;42.664;23.372;2022-08-18T07:15:34;94590.00;;;34.06;34.30
6136;BME280;24008;42.664;23.372;2022-08-18T07:18:03;94644.56;;;34.45;34.21
6136;BME280;24008;42.664;23.372;2022-08-18T07:20:40;94691.88;;;35.44;34.13
6136;BME280;24008;42.664;23.372;2022-08-18T07:23:21;94644.31;;;35.15;33.11
6136;BME280;24008;42.664;23.372;2022-08-18T07:25:57;94690.78;;;34.76;34.50
6136;BME280;24008;42.664;23.372;2022-08-18T07:28:30;94677.63;;;34.66;35.20
6136;BME280;24008;42.664;23.372;2022-08-18T07:31:11;94678.53;;;35.85;32.85
6136;BME280;24008;42.664;23.372;2022-08-18T07:33:40;94669.75;;;36.06;32.39
6136;BME280;24008;42.664;23.372;2022-08-18T07:36:10;94681.06;;;36.57;31.98
6136;BME280;24008;42.664;23.372;2022-08-18T07:38:44;94681.03;;;36.26;32.67
6136;BME280;24008;42.664;23.372;2022-08-18T07:41:16;94682.22;;;36.20;31.00
6136;BME280;24008;42.664;23.372;2022-08-18T07:43:56;94684.56;;;36.66;31.29
6136;BME280;24008;42.664;23.372;2022-08-18T07:46:37;94686.09;;;36.89;31.27
6136;BME280;24008;42.664;23.372;2022-08-18T07:49:07;94681.53;;;37.21;31.28
6136;BME280;24008;42.664;23.372;2022-08-18T07:51:42;94588.97;;;37.04;29.54
6136;BME280;24008;42.664;23.372;2022-08-18T07:54:17;94593.75;;;36.76;30.48
6136;BME280;24008;42.664;23.372;2022-08-18T07:56:50;94649.16;;;37.53;29.89
6136;BME280;24008;42.664;23.372;2022-08-18T07:59:24;94687.50;;;38.26;28.88
6136;BME280;24008;42.664;23.372;2022-08-18T08:02:05;94603.53;;;37.63;28.46
6136;BME280;24008;42.664;23.372;2022-08-18T08:04:40;94645.25;;;37.02;29.80
6136;BME280;24008;42.664;23.372;2022-08-18T08:07:15;94679.44;;;37.09;30.54
6136;BME280;24008;42.664;23.372;2022-08-18T08:09:53;94635.50;;;36.89;28.92
6136;BME280;24008;42.664;23.372;2022-08-18T08:12:25;94564.84;;;35.99;29.90
6136;BME280;24008;42.664;23.372;2022-08-18T08:15:04;94599.78;;;36.28;30.34
6136;BME280;24008;42.664;23.372;2022-08-18T08:17:41;94683.47;;;37.29;29.77
6136;BME280;24008;42.664;23.372;2022-08-18T08:20:18;94677.22;;;37.50;29.86
6136;BME280;24008;42.664;23.372;2022-08-18T08:22:59;94680.94;;;38.15;28.78
6136;BME280;24008;42.664;23.372;2022-08-18T08:25:36;94415.78;;;36.78;28.24
6136;BME280;24008;42.664;23.372;2022-08-18T08:28:14;94647.94;;;37.85;28.28
6136;BME280;24008;42.664;23.372;2022-08-18T08:30:52;94679.94;;;37.76;27.83
6136;BME280;24008;42.664;23.372;2022-08-18T08:33:25;94671.59;;;37.52;29.10
6136;BME280;24008;42.664;23.372;2022-08-18T08:36:01;94672.19;;;37.58;29.10
6136;BME280;24008;42.664;23.372;2022-08-18T08:38:37;94505.56;;;36.86;27.59
6136;BME280;24008;42.664;23.372;2022-08-18T08:41:12;94639.75;;;37.99;27.59
6136;BME280;24008;42.664;23.372;2022-08-18T08:43:44;94668.03;;;38.00;28.46
6136;BME280;24008;42.664;23.372;2022-08-18T08:46:18;94667.56;;;38.24;27.74
6136;BME280;24008;42.664;23.372;2022-08-18T08:48:48;94654.22;;;37.89;28.54
6136;BME280;24008;42.664;23.372;2022-08-18T08:51:28;94672.09;;;37.97;27.95
6136;BME280;24008;42.664;23.372;2022-08-18T08:54:03;94644.00;;;38.00;28.10
6136;BME280;24008;42.664;23.372;2022-08-18T08:56:35;94673.81;;;38.36;28.13
6136;BME280;24008;42.664;23.372;2022-08-18T08:59:09;94672.75;;;38.20;25.87
6136;BME280;24008;42.664;23.372;2022-08-18T09:01:41;94672.91;;;38.15;26.99
6136;BME280;24008;42.664;23.372;2022-08-18T09:04:20;94612.44;;;37.93;26.93
6136;BME280;24008;42.664;23.372;2022-08-18T09:07:00;94652.19;;;38.03;26.81
6136;BME280;24008;42.664;23.372;2022-08-18T09:09:48;94662.50;;;38.31;25.61
6136;BME280;24008;42.664;23.372;2022-08-18T09:12:37;94622.06;;;38.67;24.93
6136;BME280;24008;42.664;23.372;2022-08-18T09:15:18;94654.47;;;38.57;26.79
6136;BME280;24008;42.664;23.372;2022-08-18T09:18:17;94659.72;;;38.27;26.21
6136;BME280;24008;42.664;23.372;2022-08-18T09:20:59;94650.22;;;38.47;26.54
6136;BME280;24008;42.664;23.372;2022-08-18T09:23:31;94650.41;;;38.33;26.61
6136;BME280;24008;42.664;23.372;2022-08-18T09:26:23;94654.13;;;38.67;25.97
6136;BME280;24008;42.664;23.372;2022-08-18T09:28:57;94612.25;;;38.88;24.33
6136;BME280;24008;42.664;23.372;2022-08-18T09:31:26;94653.56;;;39.58;23.50
6136;BME280;24008;42.664;23.372;2022-08-18T09:37:17;94616.09;;;39.08;25.60
6136;BME280;24008;42.664;23.372;2022-08-18T09:39:53;94626.09;;;39.49;24.79
6136;BME280;24008;42.664;23.372;2022-08-18T09:42:46;94614.88;;;38.41;25.60
6136;BME280;24008;42.664;23.372;2022-08-18T09:45:40;94635.53;;;38.24;24.69
6136;BME280;24008;42.664;23.372;2022-08-18T09:48:23;94628.91;;;38.38;26.46
6136;BME280;24008;42.664;23.372;2022-08-18T09:50:54;94583.91;;;37.76;26.15
6136;BME280;24008;42.664;23.372;2022-08-18T09:53:34;94625.16;;;38.22;26.27
6136;BME280;24008;42.664;23.372;2022-08-18T09:56:03;94608.69;;;38.75;26.02
6136;BME280;24008;42.664;23.372;2022-08-18T09:58:53;94615.88;;;38.28;25.24
6136;BME280;24008;42.664;23.372;2022-08-18T10:01:34;94612.09;;;38.29;24.78
6136;BME280;24008;42.664;23.372;2022-08-18T10:04:30;94617.38;;;38.64;24.85
6136;BME280;24008;42.664;23.372;2022-08-18T10:07:20;94599.69;;;38.80;25.65
6136;BME280;24008;42.664;23.372;2022-08-18T10:10:02;94538.44;;;38.75;25.33
6136;BME280;24008;42.664;23.372;2022-08-18T10:12:54;94611.06;;;39.36;25.98
6136;BME280;24008;42.664;23.372;2022-08-18T10:15:42;94607.16;;;38.95;25.31
6136;BME280;24008;42.664;23.372;2022-08-18T10:18:34;94572.44;;;37.50;25.51
6136;BME280;24008;42.664;23.372;2022-08-18T10:21:08;94597.47;;;37.14;25.40
6136;BME280;24008;42.664;23.372;2022-08-18T10:23:45;94531.75;;;36.93;26.58
6136;BME280;24008;42.664;23.372;2022-08-18T10:29:53;94537.31;;;37.31;25.56
6136;BME280;24008;42.664;23.372;2022-08-18T10:32:39;94581.69;;;37.96;26.62
6136;BME280;24008;42.664;23.372;2022-08-18T10:38:42;94554.22;;;38.50;25.78
6136;BME280;24008;42.664;23.372;2022-08-18T10:41:21;94565.34;;;37.20;25.69
6136;BME280;24008;42.664;23.372;2022-08-18T10:43:50;94562.91;;;37.66;25.28
6136;BME280;24008;42.664;23.372;2022-08-18T10:46:20;94582.47;;;37.88;26.15
6136;BME280;24008;42.664;23.372;2022-08-18T10:48:59;94575.09;;;38.02;25.78
6136;BME280;24008;42.664;23.372;2022-08-18T10:51:38;94568.22;;;38.47;26.05
6136;BME280;24008;42.664;23.372;2022-08-18T10:54:15;94561.44;;;37.95;25.62
6136;BME280;24008;42.664;23.372;2022-08-18T10:56:49;94574.28;;;38.74;25.02
6136;BME280;24008;42.664;23.372;2022-08-18T10:59:24;94539.34;;;38.79;24.74
6136;BME280;24008;42.664;23.372;2022-08-18T11:02:04;94571.03;;;38.89;25.06
6136;BME280;24008;42.664;23.372;2022-08-18T11:04:42;94538.97;;;37.96;25.68
6136;BME280;24008;42.664;23.372;2022-08-18T11:07:12;94551.50;;;36.83;25.55
6136;BME280;24008;42.664;23.372;2022-08-18T11:09:42;94556.13;;;36.69;27.65
6136;BME280;24008;42.664;23.372;2022-08-18T11:12:11;94547.66;;;36.05;27.35
6136;BME280;24008;42.664;23.372;2022-08-18T11:15:04;94560.97;;;35.60;27.53
6136;BME280;24008;42.664;23.372;2022-08-18T11:17:41;94561.38;;;35.18;26.88
6136;BME280;24008;42.664;23.372;2022-08-18T11:20:13;94512.88;;;34.76;27.80
6136;BME280;24008;42.664;23.372;2022-08-18T11:22:49;94549.44;;;34.52;28.05
6136;BME280;24008;42.664;23.372;2022-08-18T11:25:23;94560.13;;;34.47;28.97
6136;BME280;24008;42.664;23.372;2022-08-18T11:27:51;94525.09;;;34.04;27.35
6136;BME280;24008;42.664;23.372;2022-08-18T11:30:18;94536.06;;;34.29;26.73
6136;BME280;24008;42.664;23.372;2022-08-18T11:32:47;94554.91;;;34.28;26.55
6136;BME280;24008;42.664;23.372;2022-08-18T11:35:18;94553.19;;;34.18;27.17
6136;BME280;24008;42.664;23.372;2022-08-18T11:37:48;94545.41;;;34.08;28.08
6136;BME280;24008;42.664;23.372;2022-08-18T11:40:31;94540.41;;;34.20;28.22
6136;BME280;24008;42.664;23.372;2022-08-18T11:43:04;94537.03;;;34.47;27.74
6136;BME280;24008;42.664;23.372;2022-08-18T11:45:35;94518.69;;;34.05;28.59
6136;BME280;24008;42.664;23.372;2022-08-18T11:48:17;94533.78;;;33.90;28.69
6136;BME280;24008;42.664;23.372;2022-08-18T11:50:47;94552.28;;;33.44;29.40
6136;BME280;24008;42.664;23.372;2022-08-18T11:53:21;94494.84;;;32.83;29.55
6136;BME280;24008;42.664;23.372;2022-08-18T11:56:04;94524.66;;;32.89;29.15
6136;BME280;24008;42.664;23.372;2022-08-18T11:58:40;94529.38;;;33.11;28.85
6136;BME280;24008;42.664;23.372;2022-08-18T12:01:08;94511.50;;;33.03;29.01
6136;BME280;24008;42.664;23.372;2022-08-18T12:03:40;94534.72;;;33.30;28.65
6136;BME280;24008;42.664;23.372;2022-08-18T12:06:13;94527.53;;;33.49;29.28
6136;BME280;24008;42.664;23.372;2022-08-18T12:08:51;94522.28;;;33.62;28.97
6136;BME280;24008;42.664;23.372;2022-08-18T12:11:23;94513.16;;;33.87;28.79
6136;BME280;24008;42.664;23.372;2022-08-18T12:13:58;94524.88;;;34.00;29.54
6136;BME280;24008;42.664;23.372;2022-08-18T12:16:36;94505.00;;;33.84;29.52
6136;BME280;24008;42.664;23.372;2022-08-18T12:19:05;94424.78;;;32.95;28.77
6136;BME280;24008;42.664;23.372;2022-08-18T12:21:36;94501.88;;;33.63;28.84
6136;BME280;24008;42.664;23.372;2022-08-18T12:24:04;94505.19;;;33.55;28.28
6136;BME280;24008;42.664;23.372;2022-08-18T12:26:33;94507.19;;;33.63;28.88
6136;BME280;24008;42.664;23.372;2022-08-18T12:29:00;94489.75;;;33.24;28.57
6136;BME280;24008;42.664;23.372;2022-08-18T12:31:27;94504.88;;;33.24;29.40
6136;BME280;24008;42.664;23.372;2022-08-18T12:33:53;94479.59;;;32.94;29.30
6136;BME280;24008;42.664;23.372;2022-08-18T12:36:20;94508.44;;;33.14;29.33
6136;BME280;24008;42.664;23.372;2022-08-18T12:38:47;94477.50;;;33.10;29.33
6136;BME280;24008;42.664;23.372;2022-08-18T12:41:14;94498.44;;;33.30;28.94
6136;BME280;24008;42.664;23.372;2022-08-18T12:43:42;94504.13;;;33.37;29.24
6136;BME280;24008;42.664;23.372;2022-08-18T12:46:09;94409.53;;;32.86;28.62
6136;BME280;24008;42.664;23.372;2022-08-18T12:48:36;94504.06;;;33.42;28.74
6136;BME280;24008;42.664;23.372;2022-08-18T12:51:05;94482.16;;;33.37;28.21
6136;BME280;24008;42.664;23.372;2022-08-18T12:53:33;94505.97;;;33.55;28.64
6136;BME280;24008;42.664;23.372;2022-08-18T12:56:00;94504.25;;;33.65;28.07
6136;BME280;24008;42.664;23.372;2022-08-18T12:58:27;94503.03;;;33.76;28.09
6136;BME280;24008;42.664;23.372;2022-08-18T13:00:55;94495.56;;;33.78;28.05
6136;BME280;24008;42.664;23.372;2022-08-18T13:03:22;94493.88;;;33.82;28.68
6136;BME280;24008;42.664;23.372;2022-08-18T13:05:49;94495.88;;;33.90;28.69
6136;BME280;24008;42.664;23.372;2022-08-18T13:08:20;94492.34;;;33.94;28.46
6136;BME280;24008;42.664;23.372;2022-08-18T13:10:47;94486.09;;;34.04;28.66
6136;BME280;24008;42.664;23.372;2022-08-18T13:13:16;94492.94;;;34.19;29.38
6136;BME280;24008;42.664;23.372;2022-08-18T13:15:46;94464.06;;;33.90;29.86
6136;BME280;24008;42.664;23.372;2022-08-18T13:18:15;94483.31;;;33.95;29.93
6136;BME280;24008;42.664;23.372;2022-08-18T13:20:42;94392.34;;;33.35;29.12
6136;BME280;24008;42.664;23.372;2022-08-18T13:23:08;94473.28;;;33.79;27.94
6136;BME280;24008;42.664;23.372;2022-08-18T13:25:35;94470.34;;;33.80;27.67
6136;BME280;24008;42.664;23.372;2022-08-18T13:28:03;94470.63;;;33.79;28.81
6136;BME280;24008;42.664;23.372;2022-08-18T13:30:30;94473.69;;;33.86;29.71
6136;BME280;24008;42.664;23.372;2022-08-18T13:32:58;94393.16;;;33.36;29.92
6136;BME280;24008;42.664;23.372;2022-08-18T13:35:27;94464.72;;;33.49;29.57
6136;BME280;24008;42.664;23.372;2022-08-18T13:37:55;94466.66;;;33.30;29.01